Time;durP1;ratioP1;P1;durP2;ratioP2;P2;SDS_P1;SDS_P2;PMS_P1;PMS_P2;Temp;Humidity;BMP_temperature;BMP_pressure;BME280_temperature;BME280_humidity;BME280_pressure;Samples;Min_cycle;Max_cycle;Signal;HPM_P1;HPM_P2
2024/01/04 00:01:57;;;;;;;6.93;2.30;;;7.10;99.90;;;;;;7369761;19;21092;-66
2024/01/04 00:04:43;;;;;;;6.28;3.00;;;7.10;99.90;;;;;;7370529;19;20575;-66
2024/01/04 00:07:29;;;;;;;8.40;3.45;;;7.10;99.90;;;;;;7370517;19;20355;-73
2024/01/04 00:09:55;;;;;;;6.60;1.92;;;7.10;99.90;;;;;;7376239;19;20022;-72
2024/01/04 00:12:21;;;;;;;4.57;1.90;;;7.10;99.90;;;;;;7375391;19;20037;-72
2024/01/04 00:14:47;;;;;;;6.10;1.58;;;7.10;99.90;;;;;;7379126;19;20022;-72
2024/01/04 00:17:14;;;;;;;3.35;1.60;;;7.10;99.90;;;;;;7377800;19;20022;-72
2024/01/04 00:19:40;;;;;;;4.35;1.67;;;7.10;99.90;;;;;;7375624;19;20025;-65
2024/01/04 00:22:06;;;;;;;3.28;1.60;;;7.00;99.90;;;;;;7376051;19;20367;-72
2024/01/04 00:24:32;;;;;;;5.60;1.88;;;7.10;99.90;;;;;;7376504;19;20018;-72
2024/01/04 00:26:59;;;;;;;4.30;1.70;;;7.00;99.90;;;;;;7379353;19;20118;-72
2024/01/04 00:29:25;;;;;;;6.32;1.85;;;7.00;99.90;;;;;;7371875;19;20022;-72
2024/01/04 00:31:53;;;;;;;8.68;1.73;;;7.00;99.90;;;;;;7377817;19;20022;-72
2024/01/04 00:34:20;;;;;;;4.10;1.63;;;7.00;99.90;;;;;;7375833;19;20025;-72
2024/01/04 00:36:46;;;;;;;7.63;1.95;;;7.00;99.90;;;;;;7379584;19;20044;-72
2024/01/04 00:39:12;;;;;;;7.00;1.75;;;6.90;99.90;;;;;;7375158;19;20035;-72
2024/01/04 00:41:38;;;;;;;3.28;1.33;;;6.90;99.90;;;;;;7376732;19;20025;-72
2024/01/04 00:44:05;;;;;;;4.30;1.60;;;6.90;99.90;;;;;;7376131;19;20022;-72
2024/01/04 00:46:31;;;;;;;4.63;1.80;;;6.90;99.90;;;;;;7375360;19;20018;-72
2024/01/04 00:48:57;;;;;;;3.85;2.00;;;6.90;99.90;;;;;;7375767;19;20588;-72
2024/01/04 00:51:23;;;;;;;6.85;1.90;;;6.80;99.90;;;;;;7375689;19;20049;-72
2024/01/04 00:53:51;;;;;;;4.75;1.83;;;6.80;99.90;;;;;;7377320;19;20018;-72
2024/01/04 00:56:18;;;;;;;5.00;2.08;;;6.80;99.90;;;;;;7372458;19;20659;-72
2024/01/04 00:58:44;;;;;;;5.93;2.00;;;6.70;99.90;;;;;;7371566;19;20029;-71
2024/01/04 01:01:11;;;;;;;6.38;1.70;;;6.70;99.90;;;;;;7373260;19;20489;-72
2024/01/04 01:03:37;;;;;;;9.35;2.25;;;6.70;99.90;;;;;;7374757;19;20562;-65
2024/01/04 01:06:03;;;;;;;5.53;2.17;;;6.70;99.90;;;;;;7371856;19;20032;-66
2024/01/04 01:08:30;;;;;;;7.45;2.17;;;6.70;99.90;;;;;;7376313;19;20107;-65
2024/01/04 01:10:56;;;;;;;5.55;2.17;;;6.70;99.90;;;;;;7373279;19;20019;-65
2024/01/04 01:13:22;;;;;;;7.95;2.17;;;6.70;99.90;;;;;;7378911;19;20690;-65
2024/01/04 01:15:49;;;;;;;6.15;2.08;;;6.70;99.90;;;;;;7379937;19;20014;-72
2024/01/04 01:18:16;;;;;;;5.53;2.13;;;6.60;99.90;;;;;;7372303;19;20018;-72
2024/01/04 01:20:43;;;;;;;9.20;2.70;;;6.60;99.90;;;;;;7376242;19;20031;-72
2024/01/04 01:23:09;;;;;;;5.68;2.03;;;6.60;99.90;;;;;;7373677;19;20045;-72
2024/01/04 01:25:35;;;;;;;7.85;2.70;;;6.50;99.90;;;;;;7373162;19;20011;-72
2024/01/04 01:28:03;;;;;;;4.88;2.10;;;6.40;99.90;;;;;;7374556;19;20051;-72
2024/01/04 01:30:29;;;;;;;6.53;2.78;;;6.40;99.90;;;;;;7372292;19;20034;-72
2024/01/04 01:33:15;;;;;;;6.85;3.00;;;6.40;99.90;;;;;;7372720;19;20025;-65
2024/01/04 01:36:02;;;;;;;5.78;2.42;;;6.40;99.90;;;;;;7371326;19;20232;-65
2024/01/04 01:38:31;;;;;;;8.50;2.30;;;6.30;99.90;;;;;;7374022;19;20520;-65
2024/01/04 01:40:57;;;;;;;5.22;2.50;;;6.30;99.90;;;;;;7374127;19;20018;-65
2024/01/04 01:43:23;;;;;;;6.47;2.35;;;6.30;99.90;;;;;;7376170;19;20033;-66
2024/01/04 01:45:49;;;;;;;6.35;2.28;;;6.30;99.90;;;;;;7376874;19;20023;-65
2024/01/04 01:48:15;;;;;;;11.60;2.30;;;6.20;99.90;;;;;;7376340;19;20026;-72
2024/01/04 01:50:42;;;;;;;6.32;1.98;;;6.20;99.90;;;;;;7372074;19;20098;-72
2024/01/04 01:53:08;;;;;;;6.25;2.00;;;6.20;99.90;;;;;;7374211;19;20106;-72
2024/01/04 01:55:35;;;;;;;7.53;2.30;;;6.20;99.90;;;;;;7375218;19;20014;-65
2024/01/04 01:58:02;;;;;;;7.47;2.00;;;6.20;99.90;;;;;;7373017;19;20029;-65
2024/01/04 02:00:28;;;;;;;7.60;2.38;;;6.20;99.90;;;;;;7370352;19;20507;-65
2024/01/04 02:02:56;;;;;;;15.02;2.28;;;6.20;99.90;;;;;;7371981;19;20039;-72
2024/01/04 02:05:22;;;;;;;6.03;1.70;;;6.20;99.90;;;;;;7377105;19;20022;-66
2024/01/04 02:07:49;;;;;;;8.95;1.45;;;6.20;99.90;;;;;;7374207;19;20121;-65
2024/01/04 02:10:15;;;;;;;6.38;2.00;;;6.20;99.90;;;;;;7370422;19;20077;-66
2024/01/04 02:12:42;;;;;;;5.50;1.92;;;6.10;99.90;;;;;;7376121;19;20053;-66
2024/01/04 02:15:09;;;;;;;3.83;1.67;;;6.20;99.90;;;;;;7375090;19;20114;-65
2024/01/04 02:17:35;;;;;;;6.97;2.00;;;6.10;99.90;;;;;;7377401;19;20037;-66
2024/01/04 02:20:01;;;;;;;7.47;2.00;;;6.10;99.90;;;;;;7373620;19;20019;-65
2024/01/04 02:22:28;;;;;;;4.60;1.83;;;6.10;99.90;;;;;;7374987;19;20770;-65
2024/01/04 02:24:54;;;;;;;6.60;1.77;;;6.10;99.90;;;;;;7375875;19;20014;-65
2024/01/04 02:27:20;;;;;;;4.68;1.65;;;6.10;99.90;;;;;;7369237;19;20122;-65
2024/01/04 02:29:47;;;;;;;5.70;1.52;;;6.00;99.90;;;;;;7373019;19;20658;-67
2024/01/04 02:32:33;;;;;;;8.63;1.70;;;6.00;99.90;;;;;;7373839;19;20033;-65
2024/01/04 02:34:59;;;;;;;4.50;1.48;;;6.00;99.90;;;;;;7369960;19;20516;-65
2024/01/04 02:37:25;;;;;;;6.82;1.90;;;5.90;99.90;;;;;;7372787;19;20048;-65
2024/01/04 02:39:52;;;;;;;5.60;2.08;;;5.90;99.90;;;;;;7372052;19;20026;-66
2024/01/04 02:42:18;;;;;;;5.53;1.70;;;5.90;99.90;;;;;;7369827;19;20101;-65
2024/01/04 02:44:44;;;;;;;10.68;1.85;;;5.90;99.90;;;;;;7373540;19;20604;-65
2024/01/04 02:47:11;;;;;;;7.20;2.00;;;5.90;99.90;;;;;;7369746;19;20376;-65
2024/01/04 02:49:38;;;;;;;5.50;1.88;;;5.90;99.90;;;;;;7368789;19;20018;-72
2024/01/04 02:52:05;;;;;;;10.48;2.05;;;5.90;99.90;;;;;;7373569;19;20041;-65
2024/01/04 02:54:31;;;;;;;6.60;2.00;;;5.90;99.90;;;;;;7371065;19;20099;-72
2024/01/04 02:56:59;;;;;;;8.25;1.85;;;5.90;99.90;;;;;;7374706;19;20035;-65
2024/01/04 02:59:25;;;;;;;8.00;1.88;;;5.80;99.90;;;;;;7367925;19;20771;-65
2024/01/04 03:01:52;;;;;;;4.95;1.92;;;5.90;99.90;;;;;;7373807;19;20967;-71
2024/01/04 03:04:18;;;;;;;5.03;1.88;;;5.80;99.90;;;;;;7372534;19;20053;-72
2024/01/04 03:06:44;;;;;;;6.68;2.13;;;5.80;99.90;;;;;;7373465;19;20106;-65
2024/01/04 03:09:10;;;;;;;7.03;2.00;;;5.80;99.90;;;;;;7372844;19;20025;-65
2024/01/04 03:11:38;;;;;;;6.15;2.20;;;5.80;99.90;;;;;;7371543;19;20014;-65
2024/01/04 03:14:05;;;;;;;6.47;2.25;;;5.80;99.90;;;;;;7369332;19;20355;-71
2024/01/04 03:16:31;;;;;;;6.45;2.20;;;5.80;99.90;;;;;;7372693;19;20029;-71
2024/01/04 03:18:57;;;;;;;5.63;1.80;;;5.80;99.90;;;;;;7371183;19;20107;-71
2024/01/04 03:21:23;;;;;;;3.78;1.33;;;5.80;99.90;;;;;;7372054;19;20794;-72
2024/01/04 03:23:49;;;;;;;7.18;1.92;;;5.80;99.90;;;;;;7374121;19;20027;-72
2024/01/04 03:26:15;;;;;;;4.53;1.25;;;5.80;99.90;;;;;;7371043;19;20015;-71
2024/01/04 03:28:42;;;;;;;8.13;1.77;;;5.80;99.90;;;;;;7373105;19;20872;-72
2024/01/04 03:31:09;;;;;;;6.18;1.95;;;5.80;99.90;;;;;;7367946;19;20022;-72
2024/01/04 03:33:55;;;;;;;6.47;1.38;;;5.80;99.90;;;;;;7374306;19;20026;-72
2024/01/04 03:36:21;;;;;;;6.05;1.33;;;5.80;99.90;;;;;;7372577;19;20049;-65
2024/01/04 03:38:47;;;;;;;3.45;0.98;;;5.80;99.90;;;;;;7374786;19;20033;-72
2024/01/04 03:41:14;;;;;;;2.45;1.23;;;5.80;99.90;;;;;;7370456;19;20026;-72
2024/01/04 03:43:40;;;;;;;4.75;1.23;;;5.80;99.90;;;;;;7371352;19;20019;-72
2024/01/04 03:46:08;;;;;;;5.93;1.25;;;5.80;99.90;;;;;;7380903;19;20053;-65
2024/01/04 03:48:55;;;;;;;6.55;1.10;;;5.80;99.90;;;;;;7379284;19;20022;-65
2024/01/04 03:51:21;;;;;;;3.95;0.90;;;5.80;99.90;;;;;;7377986;19;20529;-72
2024/01/04 03:53:47;;;;;;;5.20;1.13;;;5.80;99.90;;;;;;7378740;19;20117;-65
2024/01/04 03:56:13;;;;;;;5.90;1.20;;;5.80;99.90;;;;;;7379637;19;20015;-64
2024/01/04 03:58:40;;;;;;;4.18;0.88;;;5.80;99.90;;;;;;7377942;19;20034;-64
2024/01/04 04:01:06;;;;;;;2.75;0.93;;;5.70;99.90;;;;;;7380211;19;20010;-64
2024/01/04 04:03:52;;;;;;;5.03;1.13;;;5.70;99.90;;;;;;7376894;19;20022;-64
2024/01/04 04:06:21;;;;;;;3.33;0.82;;;5.70;99.90;;;;;;7381097;19;20077;-72
2024/01/04 04:08:47;;;;;;;5.45;0.98;;;5.70;99.90;;;;;;7379143;19;20029;-72
2024/01/04 04:11:17;;;;;;;5.10;0.70;;;5.70;99.90;;;;;;7375811;19;20737;-72
2024/01/04 04:13:44;;;;;;;2.80;0.90;;;5.70;99.90;;;;;;7375875;19;20057;-71
2024/01/04 04:16:10;;;;;;;4.25;1.15;;;5.70;99.90;;;;;;7378347;19;20066;-64
2024/01/04 04:18:36;;;;;;;3.28;1.13;;;5.70;99.90;;;;;;7376151;19;20635;-64
2024/01/04 04:21:02;;;;;;;5.32;1.10;;;5.70;99.90;;;;;;7375365;19;20026;-65
2024/01/04 04:23:29;;;;;;;3.55;0.90;;;5.70;99.90;;;;;;7378555;19;20043;-64
2024/01/04 04:25:55;;;;;;;5.88;1.00;;;5.70;99.90;;;;;;7379334;19;20018;-64
2024/01/04 04:28:21;;;;;;;3.13;0.90;;;5.70;99.90;;;;;;7374490;19;20018;-64
2024/01/04 04:30:47;;;;;;;3.80;1.00;;;5.60;99.90;;;;;;7377444;19;20018;-65
2024/01/04 04:33:15;;;;;;;3.60;1.05;;;5.70;99.90;;;;;;7375440;19;20036;-64
2024/01/04 04:35:41;;;;;;;6.82;1.00;;;5.60;99.90;;;;;;7379558;19;21267;-65
2024/01/04 04:38:07;;;;;;;5.47;0.90;;;5.60;99.90;;;;;;7378890;19;20019;-64
2024/01/04 04:40:34;;;;;;;5.72;1.02;;;5.60;99.90;;;;;;7376177;19;20022;-64
2024/01/04 04:43:00;;;;;;;1.92;0.60;;;5.60;99.90;;;;;;7379261;19;20014;-64
2024/01/04 04:45:26;;;;;;;5.35;0.88;;;5.60;99.90;;;;;;7373552;19;20025;-64
2024/01/04 04:47:52;;;;;;;5.57;1.10;;;5.60;99.90;;;;;;7379917;19;20018;-64
2024/01/04 04:50:18;;;;;;;5.40;1.10;;;5.50;99.90;;;;;;7375195;19;20043;-64
2024/01/04 04:52:44;;;;;;;3.10;0.90;;;5.50;99.90;;;;;;7377507;19;20025;-64
2024/01/04 04:55:12;;;;;;;5.00;1.10;;;5.50;99.90;;;;;;7376234;19;20019;-64
2024/01/04 04:57:39;;;;;;;2.10;0.70;;;5.40;99.90;;;;;;7378335;19;20031;-64
2024/01/04 05:00:06;;;;;;;6.03;1.00;;;5.40;99.90;;;;;;7376398;19;20754;-64
2024/01/04 05:02:36;;;;;;;4.90;0.70;;;5.40;99.90;;;;;;7379339;19;20038;-64
2024/01/04 05:05:02;;;;;;;3.33;0.70;;;5.40;99.90;;;;;;7377341;19;20018;-64
2024/01/04 05:07:29;;;;;;;4.00;0.90;;;5.40;99.90;;;;;;7375043;19;20047;-64
2024/01/04 05:09:55;;;;;;;5.10;1.02;;;5.40;99.90;;;;;;7377119;19;20506;-71
2024/01/04 05:12:23;;;;;;;5.65;1.05;;;5.40;99.90;;;;;;7378447;19;20018;-72
2024/01/04 05:14:50;;;;;;;3.78;1.20;;;5.30;99.90;;;;;;7376435;19;20046;-72
2024/01/04 05:17:16;;;;;;;3.30;1.05;;;5.30;99.90;;;;;;7376397;19;20011;-72
2024/01/04 05:19:45;;;;;;;3.10;1.15;;;5.30;99.90;;;;;;7371152;19;20021;-64
2024/01/04 05:22:11;;;;;;;4.93;1.23;;;5.40;99.90;;;;;;7375512;19;20360;-64
2024/01/04 05:24:38;;;;;;;3.75;1.08;;;5.30;99.90;;;;;;7374421;19;20010;-64
2024/01/04 05:27:04;;;;;;;6.30;1.08;;;5.30;99.90;;;;;;7375130;19;20018;-64
2024/01/04 05:29:30;;;;;;;3.25;1.55;;;5.30;99.90;;;;;;7371693;19;20018;-64
2024/01/04 05:31:56;;;;;;;4.05;1.10;;;5.30;99.90;;;;;;7373864;19;20070;-65
2024/01/04 05:34:23;;;;;;;2.33;1.00;;;5.30;99.90;;;;;;7373571;19;20661;-64
2024/01/04 05:36:49;;;;;;;1.50;0.80;;;5.30;99.90;;;;;;7375042;19;20478;-65
2024/01/04 05:39:16;;;;;;;4.65;0.88;;;5.30;99.90;;;;;;7372321;19;20981;-65
2024/01/04 05:41:42;;;;;;;5.88;0.98;;;5.30;99.90;;;;;;7376831;19;20121;-65
2024/01/04 05:44:08;;;;;;;3.15;0.85;;;5.30;99.90;;;;;;7377158;19;20010;-64
2024/01/04 05:46:34;;;;;;;3.22;1.00;;;5.30;99.90;;;;;;7373676;19;20045;-65
2024/01/04 05:49:01;;;;;;;5.72;1.38;;;5.30;99.90;;;;;;7371685;19;20030;-71
2024/01/04 05:51:47;;;;;;;5.90;1.02;;;5.20;99.90;;;;;;7375138;19;20022;-72
2024/01/04 05:54:13;;;;;;;7.40;1.33;;;5.20;99.90;;;;;;7375710;19;20530;-64
2024/01/04 05:56:39;;;;;;;3.88;1.00;;;5.20;99.90;;;;;;7374985;19;20022;-64
2024/01/04 05:59:05;;;;;;;5.03;0.85;;;5.20;99.90;;;;;;7373491;19;20029;-65
2024/01/04 06:01:32;;;;;;;5.13;0.98;;;5.20;99.90;;;;;;7373861;19;20048;-65
2024/01/04 06:03:58;;;;;;;4.90;0.98;;;5.20;99.90;;;;;;7374556;19;20018;-65
2024/01/04 06:06:24;;;;;;;2.17;1.05;;;5.10;99.90;;;;;;7373958;19;20031;-65
2024/01/04 06:08:50;;;;;;;5.72;1.17;;;5.10;99.90;;;;;;7376686;19;20053;-72
2024/01/04 06:11:18;;;;;;;4.40;1.00;;;5.10;99.90;;;;;;7374238;19;20082;-71
2024/01/04 06:13:44;;;;;;;6.40;1.45;;;5.10;99.90;;;;;;7375935;19;20014;-64
2024/01/04 06:16:30;;;;;;;5.88;1.17;;;5.10;99.90;;;;;;7374225;19;20041;-65
2024/01/04 06:18:57;;;;;;;7.82;1.27;;;5.10;99.90;;;;;;7374185;19;20098;-64
2024/01/04 06:21:23;;;;;;;3.90;1.30;;;5.10;99.90;;;;;;7376470;19;20124;-65
2024/01/04 06:23:50;;;;;;;4.38;1.27;;;5.00;99.90;;;;;;7377423;19;20019;-65
2024/01/04 06:26:20;;;;;;;4.90;1.20;;;5.10;99.90;;;;;;7374060;19;20022;-66
2024/01/04 06:28:47;;;;;;;4.32;1.38;;;5.00;99.90;;;;;;7376083;19;20049;-65
2024/01/04 06:31:13;;;;;;;2.97;1.23;;;5.00;99.90;;;;;;7374773;19;20022;-65
2024/01/04 06:33:39;;;;;;;7.57;1.58;;;5.00;99.90;;;;;;7375926;19;20028;-65
2024/01/04 06:36:07;;;;;;;5.10;1.23;;;5.00;99.90;;;;;;7377716;19;20029;-65
2024/01/04 06:38:36;;;;;;;3.30;1.25;;;5.00;99.90;;;;;;7375903;19;20035;-65
2024/01/04 06:41:04;;;;;;;5.05;1.40;;;5.00;99.90;;;;;;7375963;19;20022;-65
2024/01/04 06:43:31;;;;;;;6.53;1.08;;;5.00;99.90;;;;;;7372227;19;20022;-65
2024/01/04 06:45:57;;;;;;;4.10;1.08;;;5.10;99.90;;;;;;7372252;19;20022;-65
2024/01/04 06:48:24;;;;;;;4.78;1.42;;;5.00;99.90;;;;;;7372687;19;20018;-73
2024/01/04 06:50:50;;;;;;;4.57;1.05;;;5.00;99.90;;;;;;7373752;19;20019;-74
2024/01/04 06:53:17;;;;;;;4.70;1.13;;;5.00;99.90;;;;;;7374119;19;20758;-74
2024/01/04 06:55:46;;;;;;;4.85;1.10;;;5.00;99.90;;;;;;7376382;19;20398;-74
2024/01/04 06:58:32;;;;;;;5.72;1.20;;;5.00;99.90;;;;;;7370852;19;20014;-64
2024/01/04 07:00:59;;;;;;;4.40;1.08;;;5.00;99.90;;;;;;7371958;19;20090;-73
2024/01/04 07:03:25;;;;;;;3.47;1.00;;;5.00;99.90;;;;;;7366218;19;20015;-73
2024/01/04 07:05:51;;;;;;;4.45;1.20;;;4.90;99.90;;;;;;7371117;19;20019;-71
2024/01/04 07:08:18;;;;;;;6.80;1.55;;;4.90;99.90;;;;;;7371250;19;20022;-74
2024/01/04 07:11:07;;;;;;;3.20;0.90;;;5.00;99.90;;;;;;7373938;19;20467;-74
2024/01/04 07:13:34;;;;;;;3.85;1.25;;;4.90;99.90;;;;;;7372190;19;20021;-73
2024/01/04 07:16:04;;;;;;;6.63;1.27;;;4.90;99.90;;;;;;7373488;19;20007;-73
2024/01/04 07:18:30;;;;;;;5.95;1.27;;;4.90;99.90;;;;;;7368669;19;20050;-73
2024/01/04 07:20:56;;;;;;;3.00;0.82;;;4.90;99.90;;;;;;7373031;19;20031;-74
2024/01/04 07:23:23;;;;;;;3.95;0.95;;;4.90;99.90;;;;;;7370975;19;20014;-65
2024/01/04 07:25:49;;;;;;;4.45;1.02;;;4.90;99.90;;;;;;7373402;19;20411;-65
2024/01/04 07:28:16;;;;;;;3.30;0.80;;;4.90;99.90;;;;;;7374041;19;20659;-65
2024/01/04 07:30:42;;;;;;;8.35;1.25;;;4.90;99.90;;;;;;7371326;19;20025;-65
2024/01/04 07:33:08;;;;;;;5.18;1.08;;;4.90;99.90;;;;;;7372716;19;20073;-65
2024/01/04 07:35:34;;;;;;;3.55;1.10;;;4.90;99.90;;;;;;7370447;19;20018;-65
2024/01/04 07:38:01;;;;;;;3.03;1.05;;;4.90;99.90;;;;;;7371780;19;21211;-73
2024/01/04 07:40:28;;;;;;;4.40;1.13;;;4.90;99.90;;;;;;7370086;19;20085;-74
2024/01/04 07:42:54;;;;;;;4.47;1.10;;;4.90;99.90;;;;;;7370045;19;20591;-74
2024/01/04 07:45:20;;;;;;;8.52;1.70;;;4.90;99.90;;;;;;7371336;19;20026;-65
2024/01/04 07:47:46;;;;;;;6.95;1.38;;;4.90;99.90;;;;;;7369098;19;20023;-74
2024/01/04 07:50:13;;;;;;;4.10;1.20;;;4.90;99.90;;;;;;7371857;19;20024;-65
2024/01/04 07:52:42;;;;;;;6.68;1.23;;;4.90;99.90;;;;;;7371460;19;20029;-65
2024/01/04 07:55:08;;;;;;;6.20;1.42;;;4.80;99.90;;;;;;7375554;19;20098;-73
2024/01/04 07:57:34;;;;;;;3.88;1.10;;;4.80;99.90;;;;;;7369282;19;20969;-73
2024/01/04 08:00:01;;;;;;;6.30;2.05;;;4.80;99.90;;;;;;7370448;19;20026;-74
2024/01/04 08:02:29;;;;;;;3.55;1.33;;;4.80;99.90;;;;;;7364818;19;20028;-74
2024/01/04 08:04:56;;;;;;;4.20;1.38;;;4.80;99.90;;;;;;7371077;19;20022;-65
2024/01/04 08:07:22;;;;;;;4.43;1.17;;;4.80;99.90;;;;;;7369644;19;20019;-65
2024/01/04 08:09:49;;;;;;;3.33;1.23;;;4.80;99.90;;;;;;7374449;19;20023;-65
2024/01/04 08:12:15;;;;;;;2.42;1.27;;;4.80;99.90;;;;;;7371945;19;20015;-65
2024/01/04 08:14:41;;;;;;;4.72;1.40;;;4.80;99.90;;;;;;7371181;19;20389;-65
2024/01/04 08:17:08;;;;;;;3.78;1.60;;;4.80;99.90;;;;;;7369987;19;20064;-65
2024/01/04 08:19:34;;;;;;;12.75;4.22;;;4.80;99.90;;;;;;7367434;19;20010;-65
2024/01/04 08:22:00;;;;;;;10.85;5.18;;;4.80;99.90;;;;;;7372015;19;20581;-74
2024/01/04 08:24:26;;;;;;;14.95;7.07;;;4.90;99.90;;;;;;7371808;19;20029;-65
2024/01/04 08:26:52;;;;;;;8.65;2.53;;;4.90;99.90;;;;;;7370694;19;20022;-65
2024/01/04 08:29:18;;;;;;;3.90;1.70;;;4.90;99.90;;;;;;7370967;19;20074;-65
2024/01/04 08:31:45;;;;;;;7.63;2.95;;;4.90;99.90;;;;;;7377467;19;20022;-64
2024/01/04 08:34:11;;;;;;;11.75;4.85;;;5.00;99.90;;;;;;7379253;19;20015;-64
2024/01/04 08:36:38;;;;;;;14.52;6.28;;;5.00;99.90;;;;;;7377608;19;20031;-65
2024/01/04 08:39:06;;;;;;;18.05;7.20;;;5.00;99.90;;;;;;7379148;19;20031;-65
2024/01/04 08:41:32;;;;;;;9.20;3.90;;;5.00;99.90;;;;;;7376020;19;20678;-65
2024/01/04 08:43:58;;;;;;;7.07;2.78;;;5.10;99.90;;;;;;7378462;19;20014;-65
2024/01/04 08:46:24;;;;;;;5.75;2.25;;;5.10;99.90;;;;;;7376419;19;20022;-65
2024/01/04 08:48:50;;;;;;;8.75;2.40;;;5.10;99.90;;;;;;7378836;19;20018;-65
2024/01/04 08:51:17;;;;;;;5.03;3.05;;;5.10;99.90;;;;;;7378431;19;20018;-73
2024/01/04 08:53:43;;;;;;;6.80;2.88;;;5.20;99.90;;;;;;7380218;19;20022;-73
2024/01/04 08:56:13;;;;;;;6.88;3.20;;;5.20;99.90;;;;;;7376854;19;20025;-73
2024/01/04 08:58:39;;;;;;;8.15;3.65;;;5.10;99.90;;;;;;7375651;19;20055;-73
2024/01/04 09:01:05;;;;;;;5.40;2.90;;;5.20;99.90;;;;;;7379805;19;20018;-73
2024/01/04 09:03:32;;;;;;;18.98;17.25;;;5.20;99.90;;;;;;7378791;19;20018;-65
2024/01/04 09:05:58;;;;;;;26.48;22.48;;;5.20;99.90;;;;;;7377205;19;20010;-65
2024/01/04 09:08:24;;;;;;;14.48;12.68;;;5.30;99.90;;;;;;7374984;19;20029;-65
2024/01/04 09:10:50;;;;;;;3.28;2.28;;;5.30;99.90;;;;;;7378559;19;20037;-66
2024/01/04 09:13:20;;;;;;;3.30;1.50;;;5.30;99.90;;;;;;7378069;19;20014;-65
2024/01/04 09:15:46;;;;;;;4.03;1.45;;;5.30;99.90;;;;;;7377437;19;20015;-65
2024/01/04 09:18:12;;;;;;;4.68;0.90;;;5.30;99.90;;;;;;7374156;19;20018;-65
2024/01/04 09:20:39;;;;;;;3.35;1.00;;;5.30;99.90;;;;;;7373169;19;20359;-73
2024/01/04 09:23:05;;;;;;;3.38;1.20;;;5.40;99.90;;;;;;7376312;19;20053;-73
2024/01/04 09:25:31;;;;;;;7.30;1.27;;;5.40;99.90;;;;;;7376237;19;20021;-73
2024/01/04 09:27:57;;;;;;;6.53;1.20;;;5.40;99.90;;;;;;7375750;19;20494;-74
2024/01/04 09:30:23;;;;;;;3.67;1.27;;;5.40;99.90;;;;;;7374031;19;20628;-73
2024/01/04 09:32:50;;;;;;;2.50;0.95;;;5.40;99.90;;;;;;7376061;19;20050;-74
2024/01/04 09:35:20;;;;;;;5.18;1.08;;;5.40;99.90;;;;;;7377393;19;20931;-74
2024/01/04 09:37:49;;;;;;;6.20;1.20;;;5.50;99.90;;;;;;7374042;19;20153;-73
2024/01/04 09:40:17;;;;;;;3.15;1.08;;;5.50;99.90;;;;;;7372760;19;20388;-73
2024/01/04 09:42:44;;;;;;;4.07;1.70;;;5.50;99.90;;;;;;7373086;19;20018;-65
2024/01/04 09:45:14;;;;;;;2.05;1.08;;;5.60;99.90;;;;;;7375610;19;20489;-73
2024/01/04 09:47:41;;;;;;;4.88;1.25;;;5.60;99.90;;;;;;7373772;19;20482;-75
2024/01/04 09:50:10;;;;;;;5.40;1.50;;;5.60;99.90;;;;;;7376380;19;20015;-74
2024/01/04 09:52:39;;;;;;;3.35;1.02;;;5.60;99.90;;;;;;7372323;19;20029;-65
2024/01/04 09:55:08;;;;;;;2.53;1.00;;;5.60;99.90;;;;;;7378493;19;20358;-74
2024/01/04 09:57:34;;;;;;;4.35;1.17;;;5.70;99.90;;;;;;7374425;19;20658;-65
2024/01/04 10:00:00;;;;;;;3.42;1.00;;;5.70;99.90;;;;;;7376759;19;20899;-65
2024/01/04 10:02:28;;;;;;;4.45;1.20;;;5.70;99.90;;;;;;7376025;19;20011;-74
2024/01/04 10:04:57;;;;;;;5.68;1.50;;;5.80;99.90;;;;;;7375894;19;20070;-65
2024/01/04 10:07:25;;;;;;;4.25;1.38;;;5.70;99.90;;;;;;7376280;19;20520;-74
2024/01/04 10:10:12;;;;;;;3.72;1.17;;;5.80;99.90;;;;;;7375144;19;20046;-65
2024/01/04 10:12:42;;;;;;;8.10;1.10;;;5.80;99.90;;;;;;7376179;19;20018;-65
2024/01/04 10:15:11;;;;;;;3.35;1.17;;;5.90;99.90;;;;;;7376161;19;20516;-65
2024/01/04 10:17:40;;;;;;;4.43;1.10;;;5.90;99.90;;;;;;7373142;19;20018;-65
2024/01/04 10:20:29;;;;;;;;;;;5.90;99.90;;;;;;7364159;19;20034;-65
2024/01/04 10:22:59;;;;;;;3.40;0.95;;;5.90;99.90;;;;;;7369810;19;20302;-74
2024/01/04 10:25:25;;;;;;;3.28;1.08;;;5.90;99.90;;;;;;7369279;19;20011;-74
2024/01/04 10:27:59;;;;;;;4.22;1.10;;;5.90;99.90;;;;;;7370867;19;20375;-65
2024/01/04 10:30:26;;;;;;;2.95;1.05;;;5.90;99.90;;;;;;7372546;19;20014;-65
2024/01/04 10:32:52;;;;;;;2.33;0.90;;;5.90;99.90;;;;;;7373190;19;20086;-65
2024/01/04 10:35:29;;;;;;;5.78;1.10;;;5.90;99.90;;;;;;7371788;19;20088;-65
2024/01/04 10:37:58;;;;;;;5.40;1.27;;;5.90;99.90;;;;;;7368529;19;20723;-73
2024/01/04 10:40:26;;;;;;;5.15;1.20;;;5.90;99.90;;;;;;7372721;19;20056;-65
2024/01/04 10:42:54;;;;;;;1.70;0.80;;;6.00;99.90;;;;;;7369010;19;20022;-65
2024/01/04 10:45:30;;;;;;;3.05;1.25;;;6.00;99.90;;;;;;7370248;19;20381;-66
2024/01/04 10:47:56;;;;;;;4.18;1.10;;;6.00;99.90;;;;;;7368215;19;20028;-74
2024/01/04 10:50:25;;;;;;;5.00;2.75;;;6.00;99.90;;;;;;7369486;19;20111;-73
2024/01/04 10:52:56;;;;;;;6.93;1.13;;;6.00;99.90;;;;;;7369097;19;20037;-73
2024/01/04 10:55:24;;;;;;;21.48;13.95;;;6.10;99.90;;;;;;7368868;19;20021;-74
2024/01/04 10:57:52;;;;;;;6.18;1.50;;;6.20;99.90;;;;;;7372288;19;20089;-75
2024/01/04 11:00:18;;;;;;;3.92;1.65;;;6.20;99.90;;;;;;7373728;19;20378;-74
2024/01/04 11:02:47;;;;;;;4.07;1.67;;;6.20;99.90;;;;;;7372675;19;20107;-73
2024/01/04 11:05:14;;;;;;;5.53;1.23;;;6.20;99.90;;;;;;7374035;19;20043;-74
2024/01/04 11:08:01;;;;;;;5.30;1.13;;;6.30;99.90;;;;;;7374457;19;20075;-73
2024/01/04 11:10:28;;;;;;;3.83;1.00;;;6.30;99.90;;;;;;7372930;19;20026;-74
2024/01/04 11:12:55;;;;;;;4.28;1.33;;;6.40;99.90;;;;;;7372104;19;20039;-73
2024/01/04 11:15:22;;;;;;;4.13;1.10;;;6.40;99.90;;;;;;7375191;19;20038;-74
2024/01/04 11:18:11;;;;;;;1.90;1.08;;;6.40;99.90;;;;;;7372877;19;20427;-73
2024/01/04 11:21:10;;;;;;;2.42;0.93;;;6.30;99.90;;;;;;7374896;19;20083;-73
2024/01/04 11:23:46;;;;;;;2.05;0.90;;;6.30;99.90;;;;;;7373327;19;20031;-65
2024/01/04 11:26:28;;;;;;;5.35;1.25;;;6.30;99.90;;;;;;7374993;19;20018;-65
2024/01/04 11:28:56;;;;;;;4.28;1.25;;;6.30;99.90;;;;;;7370351;19;20053;-73
2024/01/04 11:31:24;;;;;;;5.28;1.35;;;6.30;99.90;;;;;;7370996;19;20801;-74
2024/01/04 11:33:51;;;;;;;5.68;1.52;;;6.40;99.90;;;;;;7370993;19;20022;-73
2024/01/04 11:36:23;;;;;;;5.38;1.38;;;6.40;99.90;;;;;;7369838;19;20043;-75
2024/01/04 11:38:50;;;;;;;6.43;2.80;;;6.40;99.90;;;;;;7369844;19;20361;-73
2024/01/04 11:41:17;;;;;;;3.60;1.13;;;6.50;99.90;;;;;;7369669;19;20002;-64
2024/01/04 11:43:44;;;;;;;6.63;1.83;;;6.50;99.90;;;;;;7368688;19;20014;-65
2024/01/04 11:46:23;;;;;;;5.40;1.38;;;6.50;99.90;;;;;;7370854;19;20015;-65
2024/01/04 11:49:00;;;;;;;3.03;1.08;;;6.60;99.90;;;;;;7372230;19;20025;-74
2024/01/04 11:51:40;;;;;;;2.67;1.10;;;6.50;99.90;;;;;;7364465;19;20051;-74
2024/01/04 11:54:08;;;;;;;4.50;1.75;;;6.50;99.90;;;;;;7371257;19;20042;-73
2024/01/04 11:56:34;;;;;;;1.70;1.00;;;6.60;99.90;;;;;;7369660;19;20082;-74
2024/01/04 11:59:12;;;;;;;4.47;1.10;;;6.60;99.90;;;;;;7368744;19;20014;-73
2024/01/04 12:01:40;;;;;;;3.38;1.02;;;6.50;99.90;;;;;;7370423;19;20440;-64
2024/01/04 12:04:12;;;;;;;5.13;1.05;;;6.50;99.90;;;;;;7372143;19;20014;-64
2024/01/04 12:06:39;;;;;;;4.35;1.05;;;6.50;99.90;;;;;;7375816;19;20022;-64
2024/01/04 12:09:06;;;;;;;1.88;0.95;;;6.30;99.90;;;;;;7375375;19;20641;-64
2024/01/04 12:11:34;;;;;;;3.97;1.10;;;6.30;99.90;;;;;;7381560;19;20462;-64
2024/01/04 12:14:05;;;;;;;4.60;1.10;;;6.20;99.90;;;;;;7375715;19;20372;-64
2024/01/04 12:16:31;;;;;;;3.83;1.00;;;6.30;99.90;;;;;;7378521;19;20023;-64
2024/01/04 12:18:58;;;;;;;5.55;1.27;;;6.20;99.90;;;;;;7374170;19;20054;-64
2024/01/04 12:21:25;;;;;;;5.20;1.33;;;6.30;99.90;;;;;;7381151;19;20029;-73
2024/01/04 12:23:52;;;;;;;5.60;1.25;;;6.30;99.90;;;;;;7380101;19;20554;-74
2024/01/04 12:26:26;;;;;;;4.43;1.40;;;6.30;99.90;;;;;;7377885;19;20024;-74
2024/01/04 12:28:53;;;;;;;4.72;1.23;;;6.40;99.90;;;;;;7376039;19;20097;-74
2024/01/04 12:31:24;;;;;;;3.38;1.30;;;6.40;99.90;;;;;;7379886;19;20727;-73
2024/01/04 12:33:53;;;;;;;4.35;1.40;;;6.30;99.90;;;;;;7379643;19;20051;-75
2024/01/04 12:36:24;;;;;;;3.88;1.30;;;6.40;99.90;;;;;;7379231;19;20035;-74
2024/01/04 12:39:05;;;;;;;5.80;1.40;;;6.40;99.90;;;;;;7380202;19;20860;-75
2024/01/04 12:41:33;;;;;;;4.55;1.05;;;6.50;99.90;;;;;;7376833;19;20019;-75
2024/01/04 12:44:00;;;;;;;4.88;1.08;;;6.40;99.90;;;;;;7378460;19;20389;-75
2024/01/04 12:46:30;;;;;;;3.03;1.00;;;6.40;99.90;;;;;;7374136;19;20121;-75
2024/01/04 12:49:09;;;;;;;3.55;1.10;;;6.40;99.90;;;;;;7377318;19;20530;-74
2024/01/04 12:51:40;;;;;;;2.88;1.15;;;6.30;99.90;;;;;;7376407;19;20075;-74
2024/01/04 12:54:07;;;;;;;;;;;6.30;99.90;;;;;;7378121;19;20038;-74
2024/01/04 12:56:35;;;;;;;3.85;1.30;;;6.30;99.90;;;;;;7375630;19;19962;-74
2024/01/04 12:59:03;;;;;;;5.13;1.88;;;6.20;99.90;;;;;;7375994;19;20018;-75
2024/01/04 13:01:33;;;;;;;4.47;1.33;;;6.20;99.90;;;;;;7375818;19;20015;-65
2024/01/04 13:04:00;;;;;;;3.78;1.30;;;6.20;99.90;;;;;;7376956;19;20367;-64